sensor_id;sensor_type;location;lat;lon;timestamp;P1;durP1;ratioP1;P2;durP2;ratioP2
2998;SDS011;1509;51.964;7.628;2022-12-29T00:01:55;3.50;;;2.60;;
2998;SDS011;1509;51.964;7.628;2022-12-29T00:04:21;3.10;;;2.53;;
2998;SDS011;1509;51.964;7.628;2022-12-29T00:06:46;3.00;;;2.17;;
2998;SDS011;1509;51.964;7.628;2022-12-29T00:09:13;2.70;;;2.07;;
2998;SDS011;1509;51.964;7.628;2022-12-29T00:11:41;3.10;;;2.30;;
2998;SDS011;1509;51.964;7.628;2022-12-29T00:14:10;3.47;;;2.50;;
2998;SDS011;1509;51.964;7.628;2022-12-29T00:16:55;3.07;;;1.93;;
2998;SDS011;1509;51.964;7.628;2022-12-29T00:19:21;4.17;;;1.97;;
2998;SDS011;1509;51.964;7.628;2022-12-29T00:22:06;2.83;;;1.83;;
2998;SDS011;1509;51.964;7.628;2022-12-29T00:24:51;3.10;;;1.63;;
2998;SDS011;1509;51.964;7.628;2022-12-29T00:27:20;2.70;;;1.70;;
2998;SDS011;1509;51.964;7.628;2022-12-29T00:30:12;2.40;;;1.57;;
2998;SDS011;1509;51.964;7.628;2022-12-29T00:33:08;2.30;;;1.60;;
2998;SDS011;1509;51.964;7.628;2022-12-29T00:36:04;2.50;;;1.27;;
2998;SDS011;1509;51.964;7.628;2022-12-29T00:38:37;3.43;;;1.50;;
2998;SDS011;1509;51.964;7.628;2022-12-29T00:41:26;2.43;;;1.43;;
2998;SDS011;1509;51.964;7.628;2022-12-29T00:44:11;2.40;;;1.57;;
2998;SDS011;1509;51.964;7.628;2022-12-29T00:46:38;3.20;;;1.50;;
2998;SDS011;1509;51.964;7.628;2022-12-29T00:49:05;5.60;;;1.70;;
2998;SDS011;1509;51.964;7.628;2022-12-29T00:51:50;1.90;;;1.47;;
2998;SDS011;1509;51.964;7.628;2022-12-29T00:54:17;1.77;;;1.37;;
2998;SDS011;1509;51.964;7.628;2022-12-29T00:56:43;2.40;;;1.53;;
2998;SDS011;1509;51.964;7.628;2022-12-29T00:59:10;2.53;;;1.53;;
2998;SDS011;1509;51.964;7.628;2022-12-29T01:01:36;2.80;;;1.83;;
2998;SDS011;1509;51.964;7.628;2022-12-29T01:04:03;4.80;;;1.73;;
2998;SDS011;1509;51.964;7.628;2022-12-29T01:06:29;2.43;;;1.60;;
2998;SDS011;1509;51.964;7.628;2022-12-29T01:08:55;2.60;;;1.53;;
2998;SDS011;1509;51.964;7.628;2022-12-29T01:11:39;2.40;;;1.63;;
2998;SDS011;1509;51.964;7.628;2022-12-29T01:14:05;2.27;;;1.73;;
2998;SDS011;1509;51.964;7.628;2022-12-29T01:16:31;2.10;;;1.47;;
2998;SDS011;1509;51.964;7.628;2022-12-29T01:18:57;2.93;;;1.60;;
2998;SDS011;1509;51.964;7.628;2022-12-29T01:21:23;2.57;;;1.73;;
2998;SDS011;1509;51.964;7.628;2022-12-29T01:23:49;3.83;;;1.97;;
2998;SDS011;1509;51.964;7.628;2022-12-29T01:26:16;4.40;;;2.27;;
2998;SDS011;1509;51.964;7.628;2022-12-29T01:28:42;2.77;;;2.13;;
2998;SDS011;1509;51.964;7.628;2022-12-29T01:31:09;3.27;;;2.47;;
2998;SDS011;1509;51.964;7.628;2022-12-29T01:33:35;4.03;;;2.57;;
2998;SDS011;1509;51.964;7.628;2022-12-29T01:36:05;3.00;;;2.50;;
2998;SDS011;1509;51.964;7.628;2022-12-29T01:38:36;3.43;;;1.63;;
2998;SDS011;1509;51.964;7.628;2022-12-29T01:41:03;2.70;;;1.90;;
2998;SDS011;1509;51.964;7.628;2022-12-29T01:46:22;3.03;;;2.30;;
2998;SDS011;1509;51.964;7.628;2022-12-29T01:49:13;2.97;;;2.20;;
2998;SDS011;1509;51.964;7.628;2022-12-29T01:51:45;3.07;;;2.03;;
2998;SDS011;1509;51.964;7.628;2022-12-29T01:54:27;3.10;;;2.00;;
2998;SDS011;1509;51.964;7.628;2022-12-29T01:56:57;3.20;;;2.30;;
2998;SDS011;1509;51.964;7.628;2022-12-29T01:59:31;2.70;;;1.90;;
2998;SDS011;1509;51.964;7.628;2022-12-29T02:02:01;3.53;;;2.50;;
2998;SDS011;1509;51.964;7.628;2022-12-29T02:04:27;2.50;;;2.10;;
2998;SDS011;1509;51.964;7.628;2022-12-29T02:06:57;2.40;;;1.90;;
2998;SDS011;1509;51.964;7.628;2022-12-29T02:09:27;2.50;;;1.83;;
2998;SDS011;1509;51.964;7.628;2022-12-29T02:11:53;3.60;;;2.17;;
2998;SDS011;1509;51.964;7.628;2022-12-29T02:14:19;3.80;;;2.57;;
2998;SDS011;1509;51.964;7.628;2022-12-29T02:24:36;2.30;;;1.50;;
2998;SDS011;1509;51.964;7.628;2022-12-29T02:30:12;3.40;;;1.93;;
2998;SDS011;1509;51.964;7.628;2022-12-29T02:33:15;3.27;;;1.60;;
2998;SDS011;1509;51.964;7.628;2022-12-29T02:36:07;1.80;;;1.30;;
2998;SDS011;1509;51.964;7.628;2022-12-29T02:42:02;3.10;;;1.60;;
2998;SDS011;1509;51.964;7.628;2022-12-29T02:44:28;2.00;;;1.50;;
2998;SDS011;1509;51.964;7.628;2022-12-29T02:47:35;1.87;;;1.20;;
2998;SDS011;1509;51.964;7.628;2022-12-29T02:50:19;2.20;;;1.50;;
2998;SDS011;1509;51.964;7.628;2022-12-29T02:52:51;2.20;;;1.30;;
2998;SDS011;1509;51.964;7.628;2022-12-29T02:55:22;2.53;;;1.50;;
2998;SDS011;1509;51.964;7.628;2022-12-29T02:57:47;1.70;;;1.20;;
2998;SDS011;1509;51.964;7.628;2022-12-29T03:00:14;1.50;;;1.03;;
2998;SDS011;1509;51.964;7.628;2022-12-29T03:13:52;2.13;;;1.27;;
2998;SDS011;1509;51.964;7.628;2022-12-29T03:17:00;1.80;;;1.00;;
2998;SDS011;1509;51.964;7.628;2022-12-29T03:19:41;1.67;;;1.00;;
2998;SDS011;1509;51.964;7.628;2022-12-29T03:22:16;1.43;;;1.00;;
2998;SDS011;1509;51.964;7.628;2022-12-29T03:24:57;2.23;;;1.00;;
2998;SDS011;1509;51.964;7.628;2022-12-29T03:27:29;1.63;;;0.90;;
2998;SDS011;1509;51.964;7.628;2022-12-29T03:30:01;2.27;;;1.20;;
2998;SDS011;1509;51.964;7.628;2022-12-29T03:32:38;1.53;;;0.93;;
2998;SDS011;1509;51.964;7.628;2022-12-29T03:35:13;2.60;;;1.20;;
2998;SDS011;1509;51.964;7.628;2022-12-29T03:37:43;2.63;;;1.67;;
2998;SDS011;1509;51.964;7.628;2022-12-29T03:40:14;1.70;;;0.80;;
2998;SDS011;1509;51.964;7.628;2022-12-29T03:42:40;2.70;;;1.10;;
2998;SDS011;1509;51.964;7.628;2022-12-29T03:45:06;2.07;;;0.80;;
2998;SDS011;1509;51.964;7.628;2022-12-29T03:47:33;4.17;;;1.33;;
2998;SDS011;1509;51.964;7.628;2022-12-29T03:49:58;2.30;;;1.13;;
2998;SDS011;1509;51.964;7.628;2022-12-29T03:52:24;2.97;;;1.07;;
2998;SDS011;1509;51.964;7.628;2022-12-29T03:54:49;1.30;;;0.90;;
2998;SDS011;1509;51.964;7.628;2022-12-29T03:57:15;2.30;;;1.20;;
2998;SDS011;1509;51.964;7.628;2022-12-29T03:59:41;2.70;;;1.27;;
2998;SDS011;1509;51.964;7.628;2022-12-29T04:02:06;3.10;;;1.23;;
2998;SDS011;1509;51.964;7.628;2022-12-29T04:04:32;1.40;;;1.00;;
2998;SDS011;1509;51.964;7.628;2022-12-29T04:06:57;1.83;;;1.30;;
2998;SDS011;1509;51.964;7.628;2022-12-29T04:09:23;2.33;;;1.43;;
2998;SDS011;1509;51.964;7.628;2022-12-29T04:11:48;4.07;;;1.30;;
2998;SDS011;1509;51.964;7.628;2022-12-29T04:14:14;4.57;;;1.40;;
2998;SDS011;1509;51.964;7.628;2022-12-29T04:16:40;1.70;;;1.20;;
2998;SDS011;1509;51.964;7.628;2022-12-29T04:19:06;3.53;;;1.10;;
2998;SDS011;1509;51.964;7.628;2022-12-29T04:21:32;4.20;;;1.20;;
2998;SDS011;1509;51.964;7.628;2022-12-29T04:23:58;3.20;;;1.20;;
2998;SDS011;1509;51.964;7.628;2022-12-29T04:26:23;4.73;;;1.23;;
2998;SDS011;1509;51.964;7.628;2022-12-29T04:28:49;6.13;;;1.20;;
2998;SDS011;1509;51.964;7.628;2022-12-29T04:31:14;1.87;;;1.17;;
2998;SDS011;1509;51.964;7.628;2022-12-29T04:33:40;2.43;;;1.13;;
2998;SDS011;1509;51.964;7.628;2022-12-29T04:36:06;2.77;;;1.50;;
2998;SDS011;1509;51.964;7.628;2022-12-29T04:38:31;2.30;;;1.60;;
2998;SDS011;1509;51.964;7.628;2022-12-29T04:41:00;3.30;;;1.50;;
2998;SDS011;1509;51.964;7.628;2022-12-29T04:43:27;3.80;;;2.23;;
2998;SDS011;1509;51.964;7.628;2022-12-29T04:45:53;4.50;;;2.00;;
2998;SDS011;1509;51.964;7.628;2022-12-29T04:48:18;2.60;;;2.30;;
2998;SDS011;1509;51.964;7.628;2022-12-29T04:50:46;3.20;;;2.20;;
2998;SDS011;1509;51.964;7.628;2022-12-29T04:53:13;3.97;;;2.40;;
2998;SDS011;1509;51.964;7.628;2022-12-29T04:55:39;5.23;;;2.70;;
2998;SDS011;1509;51.964;7.628;2022-12-29T04:58:05;4.47;;;2.63;;
2998;SDS011;1509;51.964;7.628;2022-12-29T05:00:30;6.50;;;2.70;;
2998;SDS011;1509;51.964;7.628;2022-12-29T05:02:56;3.57;;;2.70;;
2998;SDS011;1509;51.964;7.628;2022-12-29T05:05:21;6.47;;;2.87;;
2998;SDS011;1509;51.964;7.628;2022-12-29T05:07:47;4.10;;;2.63;;
2998;SDS011;1509;51.964;7.628;2022-12-29T05:10:13;5.20;;;2.30;;
2998;SDS011;1509;51.964;7.628;2022-12-29T05:12:39;13.20;;;2.80;;
2998;SDS011;1509;51.964;7.628;2022-12-29T05:15:05;10.07;;;2.27;;
2998;SDS011;1509;51.964;7.628;2022-12-29T05:17:32;4.17;;;1.70;;
2998;SDS011;1509;51.964;7.628;2022-12-29T05:19:58;3.83;;;1.40;;
2998;SDS011;1509;51.964;7.628;2022-12-29T05:22:24;2.90;;;1.00;;
2998;SDS011;1509;51.964;7.628;2022-12-29T05:24:50;3.27;;;1.10;;
2998;SDS011;1509;51.964;7.628;2022-12-29T05:27:15;1.90;;;0.97;;
2998;SDS011;1509;51.964;7.628;2022-12-29T05:29:44;2.03;;;1.07;;
2998;SDS011;1509;51.964;7.628;2022-12-29T05:32:10;2.00;;;1.30;;
2998;SDS011;1509;51.964;7.628;2022-12-29T05:34:38;1.73;;;1.00;;
2998;SDS011;1509;51.964;7.628;2022-12-29T05:37:04;2.13;;;1.23;;
2998;SDS011;1509;51.964;7.628;2022-12-29T05:39:30;2.60;;;1.70;;
2998;SDS011;1509;51.964;7.628;2022-12-29T05:41:55;1.73;;;0.90;;
2998;SDS011;1509;51.964;7.628;2022-12-29T05:44:21;2.87;;;1.20;;
2998;SDS011;1509;51.964;7.628;2022-12-29T05:46:46;2.43;;;1.00;;
2998;SDS011;1509;51.964;7.628;2022-12-29T05:49:12;3.37;;;1.23;;
2998;SDS011;1509;51.964;7.628;2022-12-29T05:51:37;3.67;;;1.03;;
2998;SDS011;1509;51.964;7.628;2022-12-29T05:54:03;2.80;;;0.80;;
2998;SDS011;1509;51.964;7.628;2022-12-29T05:56:29;2.37;;;1.40;;
2998;SDS011;1509;51.964;7.628;2022-12-29T05:58:55;4.43;;;0.90;;
2998;SDS011;1509;51.964;7.628;2022-12-29T06:01:20;1.87;;;1.00;;
2998;SDS011;1509;51.964;7.628;2022-12-29T06:03:48;3.60;;;0.93;;
2998;SDS011;1509;51.964;7.628;2022-12-29T06:06:14;4.83;;;0.80;;
2998;SDS011;1509;51.964;7.628;2022-12-29T06:08:40;1.30;;;0.70;;
2998;SDS011;1509;51.964;7.628;2022-12-29T06:11:06;4.93;;;1.10;;
2998;SDS011;1509;51.964;7.628;2022-12-29T06:13:32;1.80;;;0.90;;
2998;SDS011;1509;51.964;7.628;2022-12-29T06:15:57;2.37;;;0.80;;
2998;SDS011;1509;51.964;7.628;2022-12-29T06:18:23;2.10;;;0.80;;
2998;SDS011;1509;51.964;7.628;2022-12-29T06:20:49;1.73;;;0.67;;
2998;SDS011;1509;51.964;7.628;2022-12-29T06:23:14;1.70;;;0.90;;
2998;SDS011;1509;51.964;7.628;2022-12-29T06:25:41;3.77;;;0.80;;
2998;SDS011;1509;51.964;7.628;2022-12-29T06:28:07;1.33;;;0.93;;
2998;SDS011;1509;51.964;7.628;2022-12-29T06:30:32;7.30;;;1.40;;
2998;SDS011;1509;51.964;7.628;2022-12-29T06:32:58;5.70;;;1.07;;
2998;SDS011;1509;51.964;7.628;2022-12-29T06:35:24;3.33;;;1.03;;
2998;SDS011;1509;51.964;7.628;2022-12-29T06:37:50;3.50;;;1.47;;
2998;SDS011;1509;51.964;7.628;2022-12-29T06:40:16;4.60;;;1.03;;
2998;SDS011;1509;51.964;7.628;2022-12-29T06:42:48;2.90;;;1.30;;
2998;SDS011;1509;51.964;7.628;2022-12-29T06:45:13;2.27;;;0.90;;
2998;SDS011;1509;51.964;7.628;2022-12-29T06:47:39;3.30;;;1.13;;
2998;SDS011;1509;51.964;7.628;2022-12-29T06:50:05;2.70;;;0.90;;
2998;SDS011;1509;51.964;7.628;2022-12-29T06:52:30;3.50;;;1.00;;
2998;SDS011;1509;51.964;7.628;2022-12-29T06:54:56;3.07;;;1.20;;
2998;SDS011;1509;51.964;7.628;2022-12-29T06:57:24;2.10;;;1.00;;
2998;SDS011;1509;51.964;7.628;2022-12-29T06:59:51;3.40;;;1.00;;
2998;SDS011;1509;51.964;7.628;2022-12-29T07:02:17;2.83;;;1.43;;
2998;SDS011;1509;51.964;7.628;2022-12-29T07:04:45;2.33;;;0.90;;
2998;SDS011;1509;51.964;7.628;2022-12-29T07:07:11;3.80;;;1.40;;
2998;SDS011;1509;51.964;7.628;2022-12-29T07:09:36;4.67;;;1.20;;
2998;SDS011;1509;51.964;7.628;2022-12-29T07:12:02;3.13;;;1.73;;
2998;SDS011;1509;51.964;7.628;2022-12-29T07:14:28;2.83;;;1.57;;
2998;SDS011;1509;51.964;7.628;2022-12-29T07:16:53;6.60;;;1.60;;
2998;SDS011;1509;51.964;7.628;2022-12-29T07:19:19;4.60;;;1.20;;
2998;SDS011;1509;51.964;7.628;2022-12-29T07:21:45;5.47;;;1.60;;
2998;SDS011;1509;51.964;7.628;2022-12-29T07:24:11;4.77;;;1.20;;
2998;SDS011;1509;51.964;7.628;2022-12-29T07:26:36;3.90;;;1.13;;
2998;SDS011;1509;51.964;7.628;2022-12-29T07:29:02;3.70;;;1.13;;
2998;SDS011;1509;51.964;7.628;2022-12-29T07:31:29;3.33;;;2.33;;
2998;SDS011;1509;51.964;7.628;2022-12-29T07:33:54;2.83;;;1.23;;
2998;SDS011;1509;51.964;7.628;2022-12-29T07:36:20;6.00;;;1.47;;
2998;SDS011;1509;51.964;7.628;2022-12-29T07:38:45;5.57;;;1.30;;
2998;SDS011;1509;51.964;7.628;2022-12-29T07:41:11;4.33;;;1.10;;
2998;SDS011;1509;51.964;7.628;2022-12-29T07:43:37;3.00;;;1.40;;
2998;SDS011;1509;51.964;7.628;2022-12-29T07:46:02;3.30;;;1.27;;
2998;SDS011;1509;51.964;7.628;2022-12-29T07:48:28;3.30;;;1.20;;
2998;SDS011;1509;51.964;7.628;2022-12-29T07:50:54;2.93;;;1.40;;
2998;SDS011;1509;51.964;7.628;2022-12-29T07:53:20;4.90;;;1.40;;
2998;SDS011;1509;51.964;7.628;2022-12-29T07:55:46;3.50;;;1.27;;
2998;SDS011;1509;51.964;7.628;2022-12-29T07:58:11;6.00;;;1.33;;
2998;SDS011;1509;51.964;7.628;2022-12-29T08:00:37;2.40;;;1.37;;
2998;SDS011;1509;51.964;7.628;2022-12-29T08:03:03;4.03;;;1.03;;
2998;SDS011;1509;51.964;7.628;2022-12-29T08:05:32;1.50;;;0.90;;
2998;SDS011;1509;51.964;7.628;2022-12-29T08:07:59;2.70;;;1.07;;
2998;SDS011;1509;51.964;7.628;2022-12-29T08:10:25;4.53;;;1.37;;
2998;SDS011;1509;51.964;7.628;2022-12-29T08:12:50;3.77;;;1.50;;
2998;SDS011;1509;51.964;7.628;2022-12-29T08:15:16;5.77;;;1.37;;
2998;SDS011;1509;51.964;7.628;2022-12-29T08:17:42;3.23;;;1.30;;
2998;SDS011;1509;51.964;7.628;2022-12-29T08:20:08;4.87;;;1.60;;
2998;SDS011;1509;51.964;7.628;2022-12-29T08:22:33;3.27;;;1.50;;
2998;SDS011;1509;51.964;7.628;2022-12-29T08:24:59;4.23;;;1.03;;
2998;SDS011;1509;51.964;7.628;2022-12-29T08:27:25;1.93;;;0.90;;
2998;SDS011;1509;51.964;7.628;2022-12-29T08:29:51;2.63;;;1.20;;
2998;SDS011;1509;51.964;7.628;2022-12-29T08:32:17;4.83;;;1.30;;
2998;SDS011;1509;51.964;7.628;2022-12-29T08:34:42;2.97;;;1.30;;
2998;SDS011;1509;51.964;7.628;2022-12-29T08:37:08;3.00;;;1.47;;
2998;SDS011;1509;51.964;7.628;2022-12-29T08:39:34;3.70;;;1.40;;
2998;SDS011;1509;51.964;7.628;2022-12-29T08:42:02;5.13;;;2.50;;
2998;SDS011;1509;51.964;7.628;2022-12-29T08:44:28;3.43;;;1.20;;
2998;SDS011;1509;51.964;7.628;2022-12-29T08:46:53;4.60;;;1.77;;
2998;SDS011;1509;51.964;7.628;2022-12-29T08:49:19;1.90;;;1.20;;
2998;SDS011;1509;51.964;7.628;2022-12-29T08:51:45;6.80;;;1.07;;
2998;SDS011;1509;51.964;7.628;2022-12-29T08:54:12;4.93;;;2.37;;
2998;SDS011;1509;51.964;7.628;2022-12-29T08:56:38;2.63;;;1.30;;
2998;SDS011;1509;51.964;7.628;2022-12-29T08:59:04;3.30;;;1.97;;
2998;SDS011;1509;51.964;7.628;2022-12-29T09:01:29;1.83;;;1.13;;
2998;SDS011;1509;51.964;7.628;2022-12-29T09:03:55;23.50;;;2.43;;
2998;SDS011;1509;51.964;7.628;2022-12-29T09:06:21;4.47;;;1.30;;
2998;SDS011;1509;51.964;7.628;2022-12-29T09:08:47;6.13;;;1.50;;
2998;SDS011;1509;51.964;7.628;2022-12-29T09:11:23;3.13;;;1.37;;
2998;SDS011;1509;51.964;7.628;2022-12-29T09:13:49;4.47;;;1.10;;
2998;SDS011;1509;51.964;7.628;2022-12-29T09:16:16;6.47;;;1.87;;
2998;SDS011;1509;51.964;7.628;2022-12-29T09:18:42;4.47;;;1.40;;
2998;SDS011;1509;51.964;7.628;2022-12-29T09:21:09;5.43;;;1.80;;
2998;SDS011;1509;51.964;7.628;2022-12-29T09:23:35;4.30;;;1.27;;
2998;SDS011;1509;51.964;7.628;2022-12-29T09:26:02;3.67;;;1.03;;
2998;SDS011;1509;51.964;7.628;2022-12-29T09:28:28;3.13;;;1.30;;
2998;SDS011;1509;51.964;7.628;2022-12-29T09:30:54;2.40;;;1.37;;
2998;SDS011;1509;51.964;7.628;2022-12-29T09:33:20;3.70;;;1.27;;
2998;SDS011;1509;51.964;7.628;2022-12-29T09:35:50;3.10;;;1.37;;
2998;SDS011;1509;51.964;7.628;2022-12-29T09:38:21;4.70;;;1.37;;
2998;SDS011;1509;51.964;7.628;2022-12-29T09:40:51;6.67;;;1.90;;
2998;SDS011;1509;51.964;7.628;2022-12-29T09:43:27;2.13;;;1.00;;
2998;SDS011;1509;51.964;7.628;2022-12-29T09:48:38;3.60;;;1.27;;
2998;SDS011;1509;51.964;7.628;2022-12-29T09:51:16;4.60;;;1.20;;
2998;SDS011;1509;51.964;7.628;2022-12-29T09:53:57;5.57;;;1.50;;
2998;SDS011;1509;51.964;7.628;2022-12-29T09:56:25;3.90;;;1.10;;
2998;SDS011;1509;51.964;7.628;2022-12-29T10:01:44;4.87;;;1.50;;
2998;SDS011;1509;51.964;7.628;2022-12-29T10:04:16;4.20;;;1.90;;
2998;SDS011;1509;51.964;7.628;2022-12-29T10:06:44;3.57;;;1.27;;
2998;SDS011;1509;51.964;7.628;2022-12-29T10:15:09;2.60;;;1.33;;
2998;SDS011;1509;51.964;7.628;2022-12-29T10:17:41;6.60;;;1.57;;
2998;SDS011;1509;51.964;7.628;2022-12-29T10:25:29;4.27;;;1.23;;
2998;SDS011;1509;51.964;7.628;2022-12-29T10:28:03;4.83;;;1.57;;
2998;SDS011;1509;51.964;7.628;2022-12-29T10:30:46;6.70;;;2.10;;
2998;SDS011;1509;51.964;7.628;2022-12-29T10:33:15;4.47;;;1.60;;
2998;SDS011;1509;51.964;7.628;2022-12-29T10:35:44;4.17;;;1.10;;
2998;SDS011;1509;51.964;7.628;2022-12-29T10:40:55;2.93;;;1.00;;
2998;SDS011;1509;51.964;7.628;2022-12-29T10:45:59;13.80;;;2.53;;
2998;SDS011;1509;51.964;7.628;2022-12-29T10:48:34;5.00;;;2.10;;
2998;SDS011;1509;51.964;7.628;2022-12-29T10:51:04;5.03;;;2.30;;
2998;SDS011;1509;51.964;7.628;2022-12-29T10:53:36;4.00;;;1.80;;
2998;SDS011;1509;51.964;7.628;2022-12-29T10:58:52;3.40;;;1.70;;
2998;SDS011;1509;51.964;7.628;2022-12-29T11:01:20;6.00;;;1.77;;
2998;SDS011;1509;51.964;7.628;2022-12-29T11:03:50;10.33;;;2.17;;
2998;SDS011;1509;51.964;7.628;2022-12-29T11:06:28;3.73;;;2.00;;
2998;SDS011;1509;51.964;7.628;2022-12-29T11:08:58;7.80;;;1.90;;
2998;SDS011;1509;51.964;7.628;2022-12-29T11:11:36;2.03;;;1.23;;
2998;SDS011;1509;51.964;7.628;2022-12-29T11:14:10;3.93;;;1.80;;
2998;SDS011;1509;51.964;7.628;2022-12-29T11:16:37;4.03;;;1.40;;
2998;SDS011;1509;51.964;7.628;2022-12-29T11:19:03;6.13;;;2.63;;
2998;SDS011;1509;51.964;7.628;2022-12-29T11:21:33;5.10;;;1.57;;
2998;SDS011;1509;51.964;7.628;2022-12-29T11:26:53;3.80;;;1.80;;
2998;SDS011;1509;51.964;7.628;2022-12-29T11:31:55;4.10;;;2.23;;
2998;SDS011;1509;51.964;7.628;2022-12-29T11:34:31;6.40;;;1.77;;
2998;SDS011;1509;51.964;7.628;2022-12-29T11:37:19;3.63;;;1.53;;
2998;SDS011;1509;51.964;7.628;2022-12-29T11:42:16;6.13;;;1.27;;
2998;SDS011;1509;51.964;7.628;2022-12-29T11:44:45;6.03;;;1.37;;
2998;SDS011;1509;51.964;7.628;2022-12-29T11:47:19;5.83;;;1.40;;
2998;SDS011;1509;51.964;7.628;2022-12-29T11:49:56;2.70;;;1.90;;
2998;SDS011;1509;51.964;7.628;2022-12-29T11:52:27;4.37;;;1.67;;
2998;SDS011;1509;51.964;7.628;2022-12-29T11:54:57;4.93;;;1.20;;
2998;SDS011;1509;51.964;7.628;2022-12-29T11:57:26;8.30;;;1.43;;
2998;SDS011;1509;51.964;7.628;2022-12-29T11:59:52;2.70;;;1.20;;
2998;SDS011;1509;51.964;7.628;2022-12-29T12:04:46;3.13;;;1.13;;
2998;SDS011;1509;51.964;7.628;2022-12-29T12:07:18;2.20;;;1.20;;
2998;SDS011;1509;51.964;7.628;2022-12-29T12:09:50;3.67;;;1.13;;
2998;SDS011;1509;51.964;7.628;2022-12-29T12:14:56;3.87;;;2.50;;
2998;SDS011;1509;51.964;7.628;2022-12-29T12:17:33;3.10;;;1.40;;
2998;SDS011;1509;51.964;7.628;2022-12-29T12:20:17;5.87;;;1.67;;
2998;SDS011;1509;51.964;7.628;2022-12-29T12:22:53;9.30;;;1.90;;
2998;SDS011;1509;51.964;7.628;2022-12-29T12:25:25;3.03;;;1.40;;
2998;SDS011;1509;51.964;7.628;2022-12-29T12:30:52;6.73;;;1.30;;
2998;SDS011;1509;51.964;7.628;2022-12-29T12:33:24;7.43;;;2.33;;
2998;SDS011;1509;51.964;7.628;2022-12-29T12:35:57;5.50;;;1.73;;
2998;SDS011;1509;51.964;7.628;2022-12-29T12:38:45;1.60;;;1.00;;
2998;SDS011;1509;51.964;7.628;2022-12-29T12:44:00;4.57;;;1.40;;
2998;SDS011;1509;51.964;7.628;2022-12-29T12:52:27;4.47;;;1.40;;
2998;SDS011;1509;51.964;7.628;2022-12-29T12:55:18;7.73;;;1.90;;
2998;SDS011;1509;51.964;7.628;2022-12-29T12:57:51;3.80;;;1.43;;
2998;SDS011;1509;51.964;7.628;2022-12-29T13:00:19;5.23;;;1.30;;
2998;SDS011;1509;51.964;7.628;2022-12-29T13:13:33;3.70;;;1.30;;
2998;SDS011;1509;51.964;7.628;2022-12-29T13:21:45;9.63;;;2.00;;
2998;SDS011;1509;51.964;7.628;2022-12-29T13:27:23;3.60;;;1.50;;
2998;SDS011;1509;51.964;7.628;2022-12-29T13:30:15;5.13;;;1.70;;
2998;SDS011;1509;51.964;7.628;2022-12-29T13:40:28;4.30;;;1.60;;
2998;SDS011;1509;51.964;7.628;2022-12-29T13:42:59;4.17;;;1.40;;
2998;SDS011;1509;51.964;7.628;2022-12-29T13:45:26;2.50;;;1.50;;
2998;SDS011;1509;51.964;7.628;2022-12-29T13:48:04;4.40;;;1.60;;
2998;SDS011;1509;51.964;7.628;2022-12-29T13:50:38;8.10;;;1.33;;
2998;SDS011;1509;51.964;7.628;2022-12-29T13:53:11;3.37;;;1.53;;
2998;SDS011;1509;51.964;7.628;2022-12-29T13:58:18;4.03;;;1.93;;
2998;SDS011;1509;51.964;7.628;2022-12-29T14:01:06;7.73;;;1.77;;
2998;SDS011;1509;51.964;7.628;2022-12-29T14:03:57;4.97;;;1.60;;
2998;SDS011;1509;51.964;7.628;2022-12-29T14:08:58;4.53;;;2.43;;
2998;SDS011;1509;51.964;7.628;2022-12-29T14:13:56;4.37;;;1.50;;
2998;SDS011;1509;51.964;7.628;2022-12-29T14:16:26;4.47;;;1.70;;
2998;SDS011;1509;51.964;7.628;2022-12-29T14:18:55;4.77;;;2.17;;
2998;SDS011;1509;51.964;7.628;2022-12-29T14:21:28;4.60;;;1.57;;
2998;SDS011;1509;51.964;7.628;2022-12-29T14:23:56;9.40;;;2.60;;
2998;SDS011;1509;51.964;7.628;2022-12-29T14:38:07;4.50;;;1.87;;
2998;SDS011;1509;51.964;7.628;2022-12-29T14:40:50;4.97;;;1.70;;
2998;SDS011;1509;51.964;7.628;2022-12-29T14:43:21;3.67;;;1.70;;
2998;SDS011;1509;51.964;7.628;2022-12-29T14:45:58;2.63;;;1.50;;
2998;SDS011;1509;51.964;7.628;2022-12-29T14:50:57;6.97;;;1.67;;
2998;SDS011;1509;51.964;7.628;2022-12-29T14:53:43;3.80;;;1.77;;
2998;SDS011;1509;51.964;7.628;2022-12-29T14:56:10;3.30;;;1.73;;
2998;SDS011;1509;51.964;7.628;2022-12-29T14:58:50;3.93;;;1.57;;
2998;SDS011;1509;51.964;7.628;2022-12-29T15:04:21;5.57;;;2.77;;
2998;SDS011;1509;51.964;7.628;2022-12-29T15:06:51;3.77;;;1.50;;
2998;SDS011;1509;51.964;7.628;2022-12-29T15:09:23;9.60;;;1.70;;
2998;SDS011;1509;51.964;7.628;2022-12-29T15:11:57;7.70;;;1.40;;
2998;SDS011;1509;51.964;7.628;2022-12-29T15:14:33;5.87;;;1.40;;
2998;SDS011;1509;51.964;7.628;2022-12-29T15:17:01;3.93;;;1.80;;
2998;SDS011;1509;51.964;7.628;2022-12-29T15:19:35;5.10;;;1.43;;
2998;SDS011;1509;51.964;7.628;2022-12-29T15:22:01;7.83;;;1.70;;
2998;SDS011;1509;51.964;7.628;2022-12-29T15:24:28;5.77;;;1.30;;
2998;SDS011;1509;51.964;7.628;2022-12-29T15:26:54;2.50;;;1.20;;
2998;SDS011;1509;51.964;7.628;2022-12-29T15:32:02;3.40;;;1.27;;
2998;SDS011;1509;51.964;7.628;2022-12-29T15:34:45;3.23;;;1.60;;
2998;SDS011;1509;51.964;7.628;2022-12-29T15:37:26;9.90;;;2.03;;
2998;SDS011;1509;51.964;7.628;2022-12-29T15:39:57;7.13;;;1.73;;
2998;SDS011;1509;51.964;7.628;2022-12-29T15:42:46;2.70;;;1.57;;
2998;SDS011;1509;51.964;7.628;2022-12-29T15:45:19;6.93;;;2.00;;
2998;SDS011;1509;51.964;7.628;2022-12-29T15:47:46;5.60;;;1.97;;
2998;SDS011;1509;51.964;7.628;2022-12-29T15:52:51;6.20;;;1.83;;
2998;SDS011;1509;51.964;7.628;2022-12-29T15:55:36;6.40;;;2.23;;
2998;SDS011;1509;51.964;7.628;2022-12-29T15:58:04;5.60;;;2.40;;
2998;SDS011;1509;51.964;7.628;2022-12-29T16:00:45;3.60;;;1.70;;
2998;SDS011;1509;51.964;7.628;2022-12-29T16:03:17;2.83;;;1.20;;
2998;SDS011;1509;51.964;7.628;2022-12-29T16:05:49;4.43;;;1.10;;
2998;SDS011;1509;51.964;7.628;2022-12-29T16:08:33;9.00;;;1.50;;
2998;SDS011;1509;51.964;7.628;2022-12-29T16:11:03;2.37;;;0.90;;
2998;SDS011;1509;51.964;7.628;2022-12-29T16:13:50;4.10;;;1.27;;
2998;SDS011;1509;51.964;7.628;2022-12-29T16:16:28;4.70;;;1.20;;
2998;SDS011;1509;51.964;7.628;2022-12-29T16:18:56;2.87;;;1.07;;
2998;SDS011;1509;51.964;7.628;2022-12-29T16:21:25;4.23;;;1.20;;
2998;SDS011;1509;51.964;7.628;2022-12-29T16:23:56;5.60;;;1.57;;
2998;SDS011;1509;51.964;7.628;2022-12-29T16:26:30;7.10;;;2.70;;
2998;SDS011;1509;51.964;7.628;2022-12-29T16:28:57;2.60;;;1.57;;
2998;SDS011;1509;51.964;7.628;2022-12-29T16:31:34;6.53;;;1.90;;
2998;SDS011;1509;51.964;7.628;2022-12-29T16:34:12;3.30;;;1.70;;
2998;SDS011;1509;51.964;7.628;2022-12-29T16:36:59;3.60;;;1.40;;
2998;SDS011;1509;51.964;7.628;2022-12-29T16:39:30;6.93;;;1.70;;
2998;SDS011;1509;51.964;7.628;2022-12-29T16:41:58;5.63;;;1.90;;
2998;SDS011;1509;51.964;7.628;2022-12-29T16:47:00;6.40;;;2.33;;
2998;SDS011;1509;51.964;7.628;2022-12-29T16:49:35;5.17;;;2.10;;
2998;SDS011;1509;51.964;7.628;2022-12-29T16:52:14;3.53;;;2.33;;
2998;SDS011;1509;51.964;7.628;2022-12-29T16:54:52;4.57;;;2.30;;
2998;SDS011;1509;51.964;7.628;2022-12-29T16:57:21;5.77;;;2.20;;
2998;SDS011;1509;51.964;7.628;2022-12-29T16:59:56;5.40;;;2.60;;
2998;SDS011;1509;51.964;7.628;2022-12-29T17:02:25;4.10;;;2.23;;
2998;SDS011;1509;51.964;7.628;2022-12-29T17:04:55;5.73;;;2.80;;
2998;SDS011;1509;51.964;7.628;2022-12-29T17:07:22;11.00;;;2.83;;
2998;SDS011;1509;51.964;7.628;2022-12-29T17:09:49;9.23;;;2.90;;
2998;SDS011;1509;51.964;7.628;2022-12-29T17:12:18;4.80;;;2.30;;
2998;SDS011;1509;51.964;7.628;2022-12-29T17:17:18;6.43;;;2.70;;
2998;SDS011;1509;51.964;7.628;2022-12-29T17:20:00;5.03;;;2.47;;
2998;SDS011;1509;51.964;7.628;2022-12-29T17:22:40;5.67;;;2.53;;
2998;SDS011;1509;51.964;7.628;2022-12-29T17:25:06;9.47;;;1.97;;
2998;SDS011;1509;51.964;7.628;2022-12-29T17:27:43;5.10;;;2.27;;
2998;SDS011;1509;51.964;7.628;2022-12-29T17:30:15;8.33;;;2.87;;
2998;SDS011;1509;51.964;7.628;2022-12-29T17:32:45;8.83;;;4.03;;
2998;SDS011;1509;51.964;7.628;2022-12-29T17:35:16;4.17;;;2.30;;
2998;SDS011;1509;51.964;7.628;2022-12-29T17:37:43;4.80;;;2.10;;
2998;SDS011;1509;51.964;7.628;2022-12-29T17:40:28;6.13;;;2.23;;
2998;SDS011;1509;51.964;7.628;2022-12-29T17:42:56;2.37;;;1.47;;
2998;SDS011;1509;51.964;7.628;2022-12-29T17:45:23;3.13;;;1.80;;
2998;SDS011;1509;51.964;7.628;2022-12-29T17:47:51;2.70;;;1.63;;
2998;SDS011;1509;51.964;7.628;2022-12-29T17:50:18;6.63;;;2.00;;
2998;SDS011;1509;51.964;7.628;2022-12-29T17:52:50;4.97;;;2.00;;
2998;SDS011;1509;51.964;7.628;2022-12-29T17:55:21;2.67;;;1.67;;